createdAt,value
2023-03-22T00:01:58.748Z,103.10
2023-03-22T00:07:06.246Z,107.10
2023-03-22T00:12:10.374Z,109.90
2023-03-22T00:17:14.244Z,126.30
2023-03-22T00:22:25.689Z,123.10
2023-03-22T00:27:36.682Z,119.10
2023-03-22T00:32:38.829Z,122.30
2023-03-22T00:37:41.490Z,130.30
2023-03-22T00:42:52.419Z,129.00
2023-03-22T00:48:02.504Z,125.60
2023-03-22T00:53:07.112Z,124.70
2023-03-22T00:58:32.763Z,119.70
2023-03-22T01:03:41.947Z,115.80
2023-03-22T01:08:45.064Z,123.10
2023-03-22T01:13:48.035Z,135.80
2023-03-22T01:18:51.747Z,146.70
2023-03-22T01:23:53.837Z,144.70
2023-03-22T01:28:56.441Z,140.20
2023-03-22T01:33:58.566Z,139.90
2023-03-22T01:39:03.789Z,137.60
2023-03-22T01:44:12.696Z,139.00
2023-03-22T01:49:32.416Z,134.40
2023-03-22T01:54:45.968Z,133.80
2023-03-22T02:00:34.054Z,131.40
2023-03-22T02:05:47.843Z,129.50
2023-03-22T02:10:56.991Z,125.50
2023-03-22T02:16:49.716Z,128.50
2023-03-22T02:22:16.538Z,129.80
2023-03-22T02:28:02.927Z,132.30
2023-03-22T02:33:32.002Z,133.60
2023-03-22T02:39:05.359Z,119.90
2023-03-22T02:44:43.395Z,121.60
2023-03-22T02:49:57.004Z,112.20
2023-03-22T02:55:21.094Z,122.40
2023-03-22T03:00:30.590Z,115.80
2023-03-22T03:05:36.298Z,117.70
2023-03-22T03:10:52.799Z,114.00
2023-03-22T03:15:59.730Z,120.20
2023-03-22T03:21:36.622Z,112.80
2023-03-22T03:27:03.380Z,114.60
2023-03-22T03:32:32.738Z,125.40
2023-03-22T03:37:47.207Z,113.60
2023-03-22T03:42:53.244Z,113.80
2023-03-22T03:48:04.263Z,120.00
2023-03-22T03:53:13.952Z,108.60
2023-03-22T03:58:16.833Z,107.00
2023-03-22T04:03:19.545Z,121.30
2023-03-22T04:08:45.896Z,99.00
2023-03-22T04:13:52.642Z,90.50
2023-03-22T04:18:56.972Z,95.40
2023-03-22T04:23:59.561Z,86.30
2023-03-22T04:29:26.310Z,92.20
2023-03-22T04:34:36.104Z,84.90
2023-03-22T04:39:40.609Z,82.30
2023-03-22T04:45:05.354Z,91.60
2023-03-22T04:50:09.692Z,91.40
2023-03-22T04:55:38.936Z,103.90
2023-03-22T05:00:44.093Z,94.10
2023-03-22T05:05:53.437Z,90.20
2023-03-22T05:11:01.830Z,96.10
2023-03-22T05:16:06.167Z,101.50
2023-03-22T05:21:35.493Z,100.20
2023-03-22T05:27:06.289Z,101.40
2023-03-22T05:32:16.102Z,102.70
2023-03-22T05:37:21.211Z,102.30
2023-03-22T05:42:32.764Z,97.90
2023-03-22T05:47:36.203Z,98.20
2023-03-22T05:52:46.654Z,95.50
2023-03-22T05:58:05.196Z,87.30
2023-03-22T06:03:18.514Z,85.30
2023-03-22T06:08:27.307Z,82.50
2023-03-22T06:13:30.042Z,82.50
2023-03-22T06:18:33.378Z,80.90
2023-03-22T06:23:44.031Z,83.90
2023-03-22T06:28:49.093Z,79.50
2023-03-22T06:34:14.440Z,79.40
2023-03-22T06:39:36.436Z,76.90
2023-03-22T06:44:46.286Z,74.20
2023-03-22T06:50:03.170Z,84.90
2023-03-22T06:55:29.965Z,73.00
2023-03-22T07:00:34.254Z,69.80
2023-03-22T07:05:36.651Z,66.90
2023-03-22T07:10:40.121Z,58.70
2023-03-22T07:15:56.542Z,60.40
2023-03-22T07:21:15.449Z,60.20
2023-03-22T07:26:18.763Z,59.90
2023-03-22T07:31:23.779Z,62.50
2023-03-22T07:36:38.896Z,49.90
2023-03-22T07:41:43.477Z,56.00
2023-03-22T07:47:15.575Z,60.70
2023-03-22T07:52:37.325Z,105.20
2023-03-22T07:57:39.855Z,117.40
2023-03-22T08:02:46.028Z,58.20
2023-03-22T08:08:09.875Z,57.30
2023-03-22T08:13:12.492Z,46.40
2023-03-22T08:18:15.564Z,44.70
2023-03-22T08:23:22.609Z,43.80
2023-03-22T08:28:47.318Z,42.50
2023-03-22T08:33:50.358Z,34.50
2023-03-22T08:38:53.253Z,33.60
2023-03-22T08:43:58.606Z,35.90
2023-03-22T08:49:06.095Z,29.40
2023-03-22T08:54:16.621Z,33.50
2023-03-22T08:59:28.408Z,27.50
2023-03-22T09:05:09.266Z,30.80
2023-03-22T09:10:12.276Z,26.60
2023-03-22T09:15:17.078Z,29.40
2023-03-22T09:20:26.420Z,30.80
2023-03-22T09:25:42.427Z,25.30
2023-03-22T09:31:02.947Z,22.20
2023-03-22T09:36:13.210Z,26.90
2023-03-22T09:41:39.794Z,32.60
2023-03-22T09:46:49.375Z,20.00
2023-03-22T09:51:53.538Z,19.80
2023-03-22T09:57:15.657Z,18.10
2023-03-22T10:02:43.586Z,18.80
2023-03-22T10:08:06.930Z,22.60
2023-03-22T10:13:31.635Z,20.40
2023-03-22T10:18:43.483Z,16.60
2023-03-22T10:23:57.910Z,17.20
2023-03-22T10:29:11.809Z,14.70
2023-03-22T10:34:28.160Z,17.40
2023-03-22T10:39:35.766Z,15.20
2023-03-22T10:44:50.689Z,17.30
2023-03-22T10:50:03.592Z,13.20
2023-03-22T10:55:11.049Z,13.60
2023-03-22T11:00:17.534Z,12.00
2023-03-22T11:05:28.299Z,11.80
2023-03-22T11:10:34.989Z,12.20
2023-03-22T11:16:01.400Z,10.70
2023-03-22T11:21:11.431Z,10.30
2023-03-22T11:26:28.583Z,10.90
2023-03-22T11:31:57.472Z,10.80
2023-03-22T11:37:01.282Z,12.20
2023-03-22T11:42:06.701Z,13.20
2023-03-22T11:47:22.173Z,13.10
2023-03-22T11:52:34.253Z,17.20
2023-03-22T11:57:37.924Z,14.50
2023-03-22T12:02:54.946Z,11.90
2023-03-22T12:08:16.095Z,10.60
2023-03-22T12:13:27.736Z,9.70
2023-03-22T12:18:44.531Z,8.00
2023-03-22T12:23:50.008Z,8.00
2023-03-22T12:29:18.273Z,15.40
2023-03-22T12:34:25.894Z,10.00
2023-03-22T12:39:34.946Z,7.80
2023-03-22T12:45:05.129Z,8.20
2023-03-22T12:50:40.538Z,9.60
2023-03-22T12:55:47.639Z,8.80
2023-03-22T13:01:17.797Z,12.20
2023-03-22T13:07:05.076Z,14.40
2023-03-22T13:12:18.939Z,7.30
2023-03-22T13:17:43.048Z,8.40
2023-03-22T13:23:13.976Z,6.70
2023-03-22T13:28:27.286Z,6.80
2023-03-22T13:33:34.874Z,6.00
2023-03-22T13:38:42.980Z,6.10
2023-03-22T13:44:46.031Z,6.10
2023-03-22T13:50:02.227Z,6.20
2023-03-22T13:55:36.803Z,10.40
2023-03-22T14:00:44.771Z,7.10
2023-03-22T14:06:35.393Z,7.00
2023-03-22T14:12:06.842Z,7.30
2023-03-22T14:17:39.350Z,7.20
